sensor_id;sensor_type;location;lat;lon;timestamp;pressure;altitude;pressure_sealevel;temperature;humidity
58295;BME280;45705;55.592;37.460;2023-04-06T00:01:39;99778.88;;;4.93;100.00
58295;BME280;45705;55.592;37.460;2023-04-06T00:04:05;99763.75;;;4.87;100.00
58295;BME280;45705;55.592;37.460;2023-04-06T00:06:32;99764.88;;;4.91;100.00
58295;BME280;45705;55.592;37.460;2023-04-06T00:08:58;99764.19;;;4.79;100.00
58295;BME280;45705;55.592;37.460;2023-04-06T00:11:24;99766.94;;;4.84;100.00
58295;BME280;45705;55.592;37.460;2023-04-06T00:13:50;99763.13;;;4.80;100.00
58295;BME280;45705;55.592;37.460;2023-04-06T00:16:16;99763.63;;;4.77;100.00
58295;BME280;45705;55.592;37.460;2023-04-06T00:18:42;99771.78;;;4.82;100.00
58295;BME280;45705;55.592;37.460;2023-04-06T00:21:07;99773.03;;;4.74;100.00
58295;BME280;45705;55.592;37.460;2023-04-06T00:23:33;99777.06;;;4.71;100.00
58295;BME280;45705;55.592;37.460;2023-04-06T00:25:59;99761.97;;;4.70;100.00
58295;BME280;45705;55.592;37.460;2023-04-06T00:28:25;99778.13;;;4.70;100.00
58295;BME280;45705;55.592;37.460;2023-04-06T00:30:52;99772.19;;;4.68;100.00
58295;BME280;45705;55.592;37.460;2023-04-06T00:33:21;99773.50;;;4.66;100.00
58295;BME280;45705;55.592;37.460;2023-04-06T00:35:47;99769.41;;;4.63;100.00
58295;BME280;45705;55.592;37.460;2023-04-06T00:38:14;99764.03;;;4.63;100.00
58295;BME280;45705;55.592;37.460;2023-04-06T00:40:41;99768.81;;;4.56;100.00
58295;BME280;45705;55.592;37.460;2023-04-06T00:43:07;99769.13;;;4.60;100.00
58295;BME280;45705;55.592;37.460;2023-04-06T00:45:34;99774.16;;;4.51;100.00
58295;BME280;45705;55.592;37.460;2023-04-06T00:48:01;99766.00;;;4.46;100.00
58295;BME280;45705;55.592;37.460;2023-04-06T00:50:30;99767.19;;;4.55;100.00
58295;BME280;45705;55.592;37.460;2023-04-06T00:52:56;99770.91;;;4.49;100.00
58295;BME280;45705;55.592;37.460;2023-04-06T00:55:26;99767.09;;;4.45;100.00
58295;BME280;45705;55.592;37.460;2023-04-06T00:57:53;99764.94;;;4.47;100.00
58295;BME280;45705;55.592;37.460;2023-04-06T01:00:19;99761.22;;;4.48;100.00
58295;BME280;45705;55.592;37.460;2023-04-06T01:02:48;99769.72;;;4.40;100.00
58295;BME280;45705;55.592;37.460;2023-04-06T01:05:17;99770.78;;;4.39;100.00
58295;BME280;45705;55.592;37.460;2023-04-06T01:07:53;99758.94;;;4.40;100.00
58295;BME280;45705;55.592;37.460;2023-04-06T01:10:27;99761.59;;;4.34;100.00
58295;BME280;45705;55.592;37.460;2023-04-06T01:13:06;99759.47;;;4.37;100.00
58295;BME280;45705;55.592;37.460;2023-04-06T01:15:46;99751.94;;;4.39;100.00
58295;BME280;45705;55.592;37.460;2023-04-06T01:18:16;99760.03;;;4.39;100.00
58295;BME280;45705;55.592;37.460;2023-04-06T01:20:51;99758.84;;;4.29;100.00
58295;BME280;45705;55.592;37.460;2023-04-06T01:23:17;99747.81;;;4.31;100.00
58295;BME280;45705;55.592;37.460;2023-04-06T01:25:46;99770.66;;;4.28;100.00
58295;BME280;45705;55.592;37.460;2023-04-06T01:28:12;99757.03;;;4.13;100.00
58295;BME280;45705;55.592;37.460;2023-04-06T01:30:56;99751.69;;;4.18;100.00
58295;BME280;45705;55.592;37.460;2023-04-06T01:33:39;99758.72;;;4.19;100.00
58295;BME280;45705;55.592;37.460;2023-04-06T01:36:08;99759.22;;;4.16;100.00
58295;BME280;45705;55.592;37.460;2023-04-06T01:38:34;99758.41;;;4.16;100.00
58295;BME280;45705;55.592;37.460;2023-04-06T01:41:01;99753.28;;;4.14;100.00
58295;BME280;45705;55.592;37.460;2023-04-06T01:43:33;99744.06;;;4.10;100.00
58295;BME280;45705;55.592;37.460;2023-04-06T01:46:08;99751.69;;;4.18;100.00
58295;BME280;45705;55.592;37.460;2023-04-06T01:48:37;99747.81;;;4.09;100.00
58295;BME280;45705;55.592;37.460;2023-04-06T01:51:14;99745.69;;;4.11;100.00
58295;BME280;45705;55.592;37.460;2023-04-06T01:53:51;99749.47;;;4.10;100.00
58295;BME280;45705;55.592;37.460;2023-04-06T01:56:20;99745.69;;;4.11;100.00
58295;BME280;45705;55.592;37.460;2023-04-06T01:59:08;99744.19;;;4.20;100.00
58295;BME280;45705;55.592;37.460;2023-04-06T02:01:38;99753.88;;;3.99;100.00
58295;BME280;45705;55.592;37.460;2023-04-06T02:04:04;99746.00;;;3.92;100.00
58295;BME280;45705;55.592;37.460;2023-04-06T02:06:30;99756.00;;;3.97;100.00
58295;BME280;45705;55.592;37.460;2023-04-06T02:08:57;99753.09;;;3.99;100.00
58295;BME280;45705;55.592;37.460;2023-04-06T02:11:23;99760.59;;;3.97;100.00
58295;BME280;45705;55.592;37.460;2023-04-06T02:13:52;99753.53;;;3.90;100.00
58295;BME280;45705;55.592;37.460;2023-04-06T02:16:38;99763.72;;;3.88;100.00
58295;BME280;45705;55.592;37.460;2023-04-06T02:19:04;99769.09;;;3.88;100.00
58295;BME280;45705;55.592;37.460;2023-04-06T02:21:29;99769.16;;;3.93;100.00
58295;BME280;45705;55.592;37.460;2023-04-06T02:23:55;99771.84;;;3.93;100.00
58295;BME280;45705;55.592;37.460;2023-04-06T02:26:21;99775.13;;;3.96;100.00
58295;BME280;45705;55.592;37.460;2023-04-06T02:28:46;99765.34;;;3.89;100.00
58295;BME280;45705;55.592;37.460;2023-04-06T02:31:12;99769.09;;;3.88;100.00
58295;BME280;45705;55.592;37.460;2023-04-06T02:33:41;99775.47;;;3.82;100.00
58295;BME280;45705;55.592;37.460;2023-04-06T02:36:07;99773.03;;;3.81;100.00
58295;BME280;45705;55.592;37.460;2023-04-06T02:38:33;99773.84;;;3.81;100.00
58295;BME280;45705;55.592;37.460;2023-04-06T02:41:01;99778.09;;;3.77;100.00
58295;BME280;45705;55.592;37.460;2023-04-06T02:43:28;99778.09;;;3.77;100.00
58295;BME280;45705;55.592;37.460;2023-04-06T02:46:05;99780.78;;;3.77;100.00
58295;BME280;45705;55.592;37.460;2023-04-06T02:48:34;99792.59;;;3.76;100.00
58295;BME280;45705;55.592;37.460;2023-04-06T02:51:02;99790.97;;;3.75;100.00
58295;BME280;45705;55.592;37.460;2023-04-06T02:53:28;99792.59;;;3.76;100.00
58295;BME280;45705;55.592;37.460;2023-04-06T02:55:54;99790.97;;;3.75;100.00
58295;BME280;45705;55.592;37.460;2023-04-06T02:58:23;99805.47;;;3.74;100.00
58295;BME280;45705;55.592;37.460;2023-04-06T03:00:53;99795.69;;;3.68;100.00
58295;BME280;45705;55.592;37.460;2023-04-06T03:03:19;99805.47;;;3.74;100.00
58295;BME280;45705;55.592;37.460;2023-04-06T03:05:46;99804.34;;;3.70;100.00
58295;BME280;45705;55.592;37.460;2023-04-06T03:08:13;99806.97;;;3.65;100.00
58295;BME280;45705;55.592;37.460;2023-04-06T03:10:44;99806.31;;;3.74;100.00
58295;BME280;45705;55.592;37.460;2023-04-06T03:13:11;99801.59;;;3.65;100.00
58295;BME280;45705;55.592;37.460;2023-04-06T03:15:49;99793.75;;;3.80;100.00
58295;BME280;45705;55.592;37.460;2023-04-06T03:18:22;99801.25;;;3.78;100.00
58295;BME280;45705;55.592;37.460;2023-04-06T03:20:49;99801.31;;;3.83;100.00
58295;BME280;45705;55.592;37.460;2023-04-06T03:23:18;99804.63;;;3.90;100.00
58295;BME280;45705;55.592;37.460;2023-04-06T03:25:46;99820.25;;;3.93;100.00
58295;BME280;45705;55.592;37.460;2023-04-06T03:28:18;99810.66;;;3.98;100.00
58295;BME280;45705;55.592;37.460;2023-04-06T03:30:56;99818.66;;;3.92;100.00
58295;BME280;45705;55.592;37.460;2023-04-06T03:33:40;99814.53;;;4.07;100.00
58295;BME280;45705;55.592;37.460;2023-04-06T03:36:09;99821.69;;;4.18;100.00
58295;BME280;45705;55.592;37.460;2023-04-06T03:38:39;99818.09;;;4.12;100.00
58295;BME280;45705;55.592;37.460;2023-04-06T03:41:09;99816.81;;;4.15;100.00
58295;BME280;45705;55.592;37.460;2023-04-06T03:43:35;99802.16;;;4.06;100.00
58295;BME280;45705;55.592;37.460;2023-04-06T03:46:01;99819.19;;;4.33;100.00
58295;BME280;45705;55.592;37.460;2023-04-06T03:48:27;99824.13;;;4.42;100.00
58295;BME280;45705;55.592;37.460;2023-04-06T03:50:53;99814.72;;;4.93;100.00
58295;BME280;45705;55.592;37.460;2023-04-06T03:53:18;99830.41;;;5.29;97.89
58295;BME280;45705;55.592;37.460;2023-04-06T03:55:44;99820.06;;;5.90;93.51
58295;BME280;45705;55.592;37.460;2023-04-06T03:58:10;99817.63;;;6.26;89.64
58295;BME280;45705;55.592;37.460;2023-04-06T04:00:35;99820.78;;;6.86;84.56
58295;BME280;45705;55.592;37.460;2023-04-06T04:03:01;99821.59;;;7.07;82.11
58295;BME280;45705;55.592;37.460;2023-04-06T04:05:28;99817.81;;;6.83;81.93
58295;BME280;45705;55.592;37.460;2023-04-06T04:07:54;99836.13;;;6.65;81.91
58295;BME280;45705;55.592;37.460;2023-04-06T04:10:24;99833.22;;;6.93;80.77
58295;BME280;45705;55.592;37.460;2023-04-06T04:12:50;99826.50;;;7.10;80.28
58295;BME280;45705;55.592;37.460;2023-04-06T04:15:16;99830.28;;;7.15;78.37
58295;BME280;45705;55.592;37.460;2023-04-06T04:17:42;99837.31;;;7.21;79.32
58295;BME280;45705;55.592;37.460;2023-04-06T04:20:12;99823.81;;;7.31;77.42
58295;BME280;45705;55.592;37.460;2023-04-06T04:22:38;99835.91;;;8.11;72.59
58295;BME280;45705;55.592;37.460;2023-04-06T04:25:05;99838.91;;;9.58;65.92
58295;BME280;45705;55.592;37.460;2023-04-06T04:27:33;99836.63;;;9.36;64.57
58295;BME280;45705;55.592;37.460;2023-04-06T04:29:59;99835.69;;;9.56;64.87
58295;BME280;45705;55.592;37.460;2023-04-06T04:32:25;99841.63;;;8.74;67.08
58295;BME280;45705;55.592;37.460;2023-04-06T04:34:53;99838.88;;;8.04;70.51
58295;BME280;45705;55.592;37.460;2023-04-06T04:37:31;99843.41;;;8.99;67.58
58295;BME280;45705;55.592;37.460;2023-04-06T04:39:57;99823.78;;;9.13;66.28
58295;BME280;45705;55.592;37.460;2023-04-06T04:42:23;99837.31;;;8.78;66.64
58295;BME280;45705;55.592;37.460;2023-04-06T04:44:52;99842.31;;;9.00;65.11
58295;BME280;45705;55.592;37.460;2023-04-06T04:47:30;99835.03;;;9.35;63.17
58295;BME280;45705;55.592;37.460;2023-04-06T04:49:56;99826.06;;;9.98;62.31
58295;BME280;45705;55.592;37.460;2023-04-06T04:52:23;99829.94;;;10.16;60.17
58295;BME280;45705;55.592;37.460;2023-04-06T04:55:09;99826.72;;;10.81;57.73
58295;BME280;45705;55.592;37.460;2023-04-06T04:57:35;99827.66;;;9.75;59.63
58295;BME280;45705;55.592;37.460;2023-04-06T05:00:03;99836.22;;;9.88;59.24
58295;BME280;45705;55.592;37.460;2023-04-06T05:02:31;99832.22;;;11.33;55.13
58295;BME280;45705;55.592;37.460;2023-04-06T05:05:23;99821.78;;;12.84;50.88
58295;BME280;45705;55.592;37.460;2023-04-06T05:07:50;99832.38;;;11.89;50.12
58295;BME280;45705;55.592;37.460;2023-04-06T05:10:38;99828.50;;;11.62;51.58
58295;BME280;45705;55.592;37.460;2023-04-06T05:13:04;99831.94;;;12.14;50.44
58295;BME280;45705;55.592;37.460;2023-04-06T05:15:30;99835.59;;;12.37;48.50
58295;BME280;45705;55.592;37.460;2023-04-06T05:18:12;99842.75;;;11.02;52.99
58295;BME280;45705;55.592;37.460;2023-04-06T05:20:38;99835.91;;;10.67;55.33
58295;BME280;45705;55.592;37.460;2023-04-06T05:23:04;99832.13;;;11.57;53.24
58295;BME280;45705;55.592;37.460;2023-04-06T05:25:30;99832.81;;;11.96;49.86
58295;BME280;45705;55.592;37.460;2023-04-06T05:28:10;99831.59;;;12.71;49.02
58295;BME280;45705;55.592;37.460;2023-04-06T05:30:44;99842.25;;;11.19;52.62
58295;BME280;45705;55.592;37.460;2023-04-06T05:33:12;99839.38;;;11.95;50.12
58295;BME280;45705;55.592;37.460;2023-04-06T05:35:58;99839.31;;;11.67;50.39
58295;BME280;45705;55.592;37.460;2023-04-06T05:38:26;99829.75;;;12.94;48.40
58295;BME280;45705;55.592;37.460;2023-04-06T05:40:54;99828.03;;;14.69;42.84
58295;BME280;45705;55.592;37.460;2023-04-06T05:43:24;99826.78;;;14.84;43.23
58295;BME280;45705;55.592;37.460;2023-04-06T05:45:53;99833.53;;;14.29;42.89
58295;BME280;45705;55.592;37.460;2023-04-06T05:48:19;99846.88;;;12.31;48.06
58295;BME280;45705;55.592;37.460;2023-04-06T05:50:49;99844.84;;;12.50;48.40
58295;BME280;45705;55.592;37.460;2023-04-06T05:53:23;99847.56;;;13.51;43.71
58295;BME280;45705;55.592;37.460;2023-04-06T05:55:55;99837.84;;;14.61;41.95
58295;BME280;45705;55.592;37.460;2023-04-06T05:58:20;99843.78;;;13.02;45.77
58295;BME280;45705;55.592;37.460;2023-04-06T06:00:49;99837.84;;;13.90;44.39
58295;BME280;45705;55.592;37.460;2023-04-06T06:03:17;99848.06;;;13.53;44.77
58295;BME280;45705;55.592;37.460;2023-04-06T06:05:48;99823.09;;;15.23;41.54
58295;BME280;45705;55.592;37.460;2023-04-06T06:08:20;99846.75;;;14.44;41.83
58295;BME280;45705;55.592;37.460;2023-04-06T06:10:47;99823.69;;;17.30;36.65
58295;BME280;45705;55.592;37.460;2023-04-06T06:13:15;99826.00;;;15.35;40.01
58295;BME280;45705;55.592;37.460;2023-04-06T06:15:41;99830.44;;;15.66;38.09
58295;BME280;45705;55.592;37.460;2023-04-06T06:18:08;99827.28;;;13.97;41.49
58295;BME280;45705;55.592;37.460;2023-04-06T06:20:34;99837.66;;;14.17;42.36
58295;BME280;45705;55.592;37.460;2023-04-06T06:23:03;99821.16;;;15.32;39.69
58295;BME280;45705;55.592;37.460;2023-04-06T06:25:29;99827.53;;;15.71;38.67
58295;BME280;45705;55.592;37.460;2023-04-06T06:27:57;99805.00;;;18.02;34.74
58295;BME280;45705;55.592;37.460;2023-04-06T06:30:22;99812.69;;;18.21;33.83
58295;BME280;45705;55.592;37.460;2023-04-06T06:32:50;99811.53;;;20.29;30.71
58295;BME280;45705;55.592;37.460;2023-04-06T06:35:16;99809.28;;;19.14;32.48
58295;BME280;45705;55.592;37.460;2023-04-06T06:37:42;99812.06;;;20.34;30.29
58295;BME280;45705;55.592;37.460;2023-04-06T06:40:11;99806.19;;;20.87;30.00
58295;BME280;45705;55.592;37.460;2023-04-06T06:42:39;99824.56;;;17.22;33.75
58295;BME280;45705;55.592;37.460;2023-04-06T06:45:17;99815.75;;;17.62;34.36
58295;BME280;45705;55.592;37.460;2023-04-06T06:47:42;99808.00;;;19.40;31.73
58295;BME280;45705;55.592;37.460;2023-04-06T06:50:10;99803.03;;;20.37;30.01
58295;BME280;45705;55.592;37.460;2023-04-06T06:52:36;99809.78;;;19.60;30.60
58295;BME280;45705;55.592;37.460;2023-04-06T06:55:02;99818.19;;;15.72;36.77
58295;BME280;45705;55.592;37.460;2023-04-06T06:57:28;99825.97;;;15.44;38.45
58295;BME280;45705;55.592;37.460;2023-04-06T06:59:54;99808.97;;;19.32;32.06
58295;BME280;45705;55.592;37.460;2023-04-06T07:02:20;99801.38;;;19.41;31.97
58295;BME280;45705;55.592;37.460;2023-04-06T07:04:49;99809.22;;;19.55;31.38
58295;BME280;45705;55.592;37.460;2023-04-06T07:07:15;99813.84;;;20.26;30.30
58295;BME280;45705;55.592;37.460;2023-04-06T07:09:42;99823.28;;;17.19;34.03
58295;BME280;45705;55.592;37.460;2023-04-06T07:12:07;99820.03;;;18.29;33.34
58295;BME280;45705;55.592;37.460;2023-04-06T07:14:33;99821.94;;;17.25;34.11
58295;BME280;45705;55.592;37.460;2023-04-06T07:17:00;99833.25;;;15.05;38.16
58295;BME280;45705;55.592;37.460;2023-04-06T07:19:25;99845.59;;;13.65;41.60
58295;BME280;45705;55.592;37.460;2023-04-06T07:21:51;99822.13;;;15.02;39.57
58295;BME280;45705;55.592;37.460;2023-04-06T07:24:17;99832.38;;;15.92;36.91
58295;BME280;45705;55.592;37.460;2023-04-06T07:26:43;99824.94;;;15.84;37.15
58295;BME280;45705;55.592;37.460;2023-04-06T07:29:09;99838.53;;;15.02;38.04
58295;BME280;45705;55.592;37.460;2023-04-06T07:31:35;99820.97;;;14.76;39.42
58295;BME280;45705;55.592;37.460;2023-04-06T07:34:02;99842.44;;;12.63;44.90
58295;BME280;45705;55.592;37.460;2023-04-06T07:36:28;99838.53;;;13.42;44.66
58295;BME280;45705;55.592;37.460;2023-04-06T07:38:54;99842.78;;;13.79;42.83
58295;BME280;45705;55.592;37.460;2023-04-06T07:41:20;99849.91;;;12.71;44.66
58295;BME280;45705;55.592;37.460;2023-04-06T07:43:47;99842.31;;;12.68;45.37
58295;BME280;45705;55.592;37.460;2023-04-06T07:46:12;99849.69;;;13.54;43.95
58295;BME280;45705;55.592;37.460;2023-04-06T07:48:38;99838.72;;;12.45;46.80
58295;BME280;45705;55.592;37.460;2023-04-06T07:51:05;99845.78;;;12.32;46.65
58295;BME280;45705;55.592;37.460;2023-04-06T07:53:35;99843.94;;;11.99;48.66
58295;BME280;45705;55.592;37.460;2023-04-06T07:56:01;99838.50;;;12.55;47.61
58295;BME280;45705;55.592;37.460;2023-04-06T07:58:27;99830.25;;;13.33;45.45
58295;BME280;45705;55.592;37.460;2023-04-06T08:00:52;99846.75;;;12.77;45.15
58295;BME280;45705;55.592;37.460;2023-04-06T08:03:19;99828.81;;;12.21;48.46
58295;BME280;45705;55.592;37.460;2023-04-06T08:05:46;99849.75;;;11.27;50.44
58295;BME280;45705;55.592;37.460;2023-04-06T08:08:12;99834.28;;;12.35;48.72
58295;BME280;45705;55.592;37.460;2023-04-06T08:10:38;99849.50;;;11.75;49.29
58295;BME280;45705;55.592;37.460;2023-04-06T08:13:04;99843.56;;;11.40;50.98
58295;BME280;45705;55.592;37.460;2023-04-06T08:15:29;99846.34;;;11.35;51.91
58295;BME280;45705;55.592;37.460;2023-04-06T08:17:55;99849.28;;;11.20;51.92
58295;BME280;45705;55.592;37.460;2023-04-06T08:20:22;99850.03;;;10.88;52.32
58295;BME280;45705;55.592;37.460;2023-04-06T08:22:48;99839.00;;;11.17;51.91
58295;BME280;45705;55.592;37.460;2023-04-06T08:25:14;99836.16;;;11.60;50.29
58295;BME280;45705;55.592;37.460;2023-04-06T08:27:40;99854.72;;;11.58;50.16
58295;BME280;45705;55.592;37.460;2023-04-06T08:30:06;99838.06;;;11.27;51.02
58295;BME280;45705;55.592;37.460;2023-04-06T08:32:31;99853.13;;;11.19;50.82
58295;BME280;45705;55.592;37.460;2023-04-06T08:34:57;99837.59;;;10.81;52.71
58295;BME280;45705;55.592;37.460;2023-04-06T08:37:23;99839.97;;;11.07;52.00
58295;BME280;45705;55.592;37.460;2023-04-06T08:39:48;99844.75;;;10.96;51.42
58295;BME280;45705;55.592;37.460;2023-04-06T08:42:19;99849.91;;;11.17;51.77
58295;BME280;45705;55.592;37.460;2023-04-06T08:44:46;99823.00;;;10.53;52.97
58295;BME280;45705;55.592;37.460;2023-04-06T08:47:12;99833.91;;;10.91;52.57
58295;BME280;45705;55.592;37.460;2023-04-06T08:49:38;99840.25;;;11.25;52.42
58295;BME280;45705;55.592;37.460;2023-04-06T08:52:07;99823.03;;;11.62;50.55
58295;BME280;45705;55.592;37.460;2023-04-06T08:54:37;99832.41;;;11.56;49.73
58295;BME280;45705;55.592;37.460;2023-04-06T08:57:03;99839.66;;;11.09;50.79
58295;BME280;45705;55.592;37.460;2023-04-06T08:59:30;99829.31;;;11.43;50.43
58295;BME280;45705;55.592;37.460;2023-04-06T09:01:56;99820.56;;;11.47;49.87
58295;BME280;45705;55.592;37.460;2023-04-06T09:04:23;99837.00;;;10.84;50.83
58295;BME280;45705;55.592;37.460;2023-04-06T09:06:49;99833.56;;;11.17;51.20
58295;BME280;45705;55.592;37.460;2023-04-06T09:09:15;99825.25;;;11.60;49.67
58295;BME280;45705;55.592;37.460;2023-04-06T09:11:48;99836.78;;;11.71;50.32
58295;BME280;45705;55.592;37.460;2023-04-06T09:14:15;99828.03;;;11.22;50.20
58295;BME280;45705;55.592;37.460;2023-04-06T09:16:43;99845.03;;;11.14;49.90
58295;BME280;45705;55.592;37.460;2023-04-06T09:19:11;99820.09;;;11.26;49.52
58295;BME280;45705;55.592;37.460;2023-04-06T09:21:38;99829.50;;;11.14;49.89
58295;BME280;45705;55.592;37.460;2023-04-06T09:24:06;99821.00;;;11.54;49.62
58295;BME280;45705;55.592;37.460;2023-04-06T09:26:32;99811.59;;;11.79;48.74
58295;BME280;45705;55.592;37.460;2023-04-06T09:29:09;99815.31;;;11.36;49.40
58295;BME280;45705;55.592;37.460;2023-04-06T09:31:35;99820.75;;;11.36;49.24
58295;BME280;45705;55.592;37.460;2023-04-06T09:34:01;99816.56;;;11.25;49.21
58295;BME280;45705;55.592;37.460;2023-04-06T09:36:31;99821.66;;;11.78;47.64
58295;BME280;45705;55.592;37.460;2023-04-06T09:38:59;99840.31;;;11.38;48.66
58295;BME280;45705;55.592;37.460;2023-04-06T09:41:30;99833.50;;;11.55;48.72
58295;BME280;45705;55.592;37.460;2023-04-06T09:44:10;99827.97;;;11.93;47.90
58295;BME280;45705;55.592;37.460;2023-04-06T09:46:37;99822.06;;;11.86;46.28
58295;BME280;45705;55.592;37.460;2023-04-06T09:49:05;99821.75;;;12.06;46.10
58295;BME280;45705;55.592;37.460;2023-04-06T09:51:37;99817.91;;;12.35;45.97
58295;BME280;45705;55.592;37.460;2023-04-06T09:54:03;99838.63;;;12.36;45.56
58295;BME280;45705;55.592;37.460;2023-04-06T09:56:46;99810.03;;;12.19;46.35
58295;BME280;45705;55.592;37.460;2023-04-06T09:59:15;99830.22;;;12.18;46.19
58295;BME280;45705;55.592;37.460;2023-04-06T10:01:42;99815.47;;;12.06;46.73
58295;BME280;45705;55.592;37.460;2023-04-06T10:06:59;99802.16;;;12.18;46.06
58295;BME280;45705;55.592;37.460;2023-04-06T10:09:28;99807.00;;;12.49;45.58
58295;BME280;45705;55.592;37.460;2023-04-06T10:12:03;99821.75;;;12.34;44.71
58295;BME280;45705;55.592;37.460;2023-04-06T10:14:29;99830.00;;;12.01;45.86
58295;BME280;45705;55.592;37.460;2023-04-06T10:16:55;99817.69;;;12.04;45.63
58295;BME280;45705;55.592;37.460;2023-04-06T10:19:27;99818.91;;;12.11;45.51
58295;BME280;45705;55.592;37.460;2023-04-06T10:21:57;99816.28;;;12.06;46.21
58295;BME280;45705;55.592;37.460;2023-04-06T10:24:25;99834.25;;;12.07;45.53
58295;BME280;45705;55.592;37.460;2023-04-06T10:27:03;99822.34;;;12.45;45.45
58295;BME280;45705;55.592;37.460;2023-04-06T10:29:41;99820.13;;;12.33;45.33
58295;BME280;45705;55.592;37.460;2023-04-06T10:32:07;99795.53;;;12.74;45.27
58295;BME280;45705;55.592;37.460;2023-04-06T10:34:35;99814.16;;;12.58;45.26
58295;BME280;45705;55.592;37.460;2023-04-06T10:37:14;99813.56;;;12.48;45.05
58295;BME280;45705;55.592;37.460;2023-04-06T10:39:52;99819.53;;;12.36;45.05
58295;BME280;45705;55.592;37.460;2023-04-06T10:42:24;99812.47;;;12.35;45.23
58295;BME280;45705;55.592;37.460;2023-04-06T10:44:50;99808.56;;;12.64;44.74
58295;BME280;45705;55.592;37.460;2023-04-06T10:47:17;99809.22;;;12.60;45.00
58295;BME280;45705;55.592;37.460;2023-04-06T10:49:43;99812.03;;;12.55;44.89
58295;BME280;45705;55.592;37.460;2023-04-06T10:52:09;99827.16;;;12.75;44.48
58295;BME280;45705;55.592;37.460;2023-04-06T10:54:41;99800.00;;;12.70;44.67
58295;BME280;45705;55.592;37.460;2023-04-06T10:57:08;99824.16;;;12.63;44.33
58295;BME280;45705;55.592;37.460;2023-04-06T10:59:34;99797.53;;;12.83;44.17
58295;BME280;45705;55.592;37.460;2023-04-06T11:01:59;99801.22;;;13.00;43.06
58295;BME280;45705;55.592;37.460;2023-04-06T11:04:25;99795.88;;;12.95;42.96
58295;BME280;45705;55.592;37.460;2023-04-06T11:06:51;99805.19;;;12.94;43.23
58295;BME280;45705;55.592;37.460;2023-04-06T11:09:27;99802.41;;;12.58;43.45
58295;BME280;45705;55.592;37.460;2023-04-06T11:11:53;99807.16;;;13.03;42.55
58295;BME280;45705;55.592;37.460;2023-04-06T11:14:19;99801.22;;;12.50;43.13
58295;BME280;45705;55.592;37.460;2023-04-06T11:16:47;99791.03;;;12.92;42.65
58295;BME280;45705;55.592;37.460;2023-04-06T11:19:15;99804.13;;;13.41;41.83
58295;BME280;45705;55.592;37.460;2023-04-06T11:21:45;99816.69;;;13.05;41.41
58295;BME280;45705;55.592;37.460;2023-04-06T11:24:16;99792.41;;;13.04;41.59
58295;BME280;45705;55.592;37.460;2023-04-06T11:26:47;99789.69;;;13.04;40.42
58295;BME280;45705;55.592;37.460;2023-04-06T11:29:19;99805.97;;;13.09;40.73
58295;BME280;45705;55.592;37.460;2023-04-06T11:31:47;99798.50;;;13.23;40.43
58295;BME280;45705;55.592;37.460;2023-04-06T11:34:21;99792.94;;;13.51;40.48
58295;BME280;45705;55.592;37.460;2023-04-06T11:36:56;99803.59;;;13.16;40.90
58295;BME280;45705;55.592;37.460;2023-04-06T11:39:26;99792.31;;;13.09;40.33
58295;BME280;45705;55.592;37.460;2023-04-06T11:41:54;99788.06;;;13.03;40.69
58295;BME280;45705;55.592;37.460;2023-04-06T11:44:38;99800.75;;;13.21;40.35
58295;BME280;45705;55.592;37.460;2023-04-06T11:47:06;99793.03;;;13.00;40.93
58295;BME280;45705;55.592;37.460;2023-04-06T11:49:34;99800.09;;;13.02;40.91
58295;BME280;45705;55.592;37.460;2023-04-06T11:52:02;99791.25;;;13.18;40.46
58295;BME280;45705;55.592;37.460;2023-04-06T11:54:31;99784.31;;;13.35;40.51
58295;BME280;45705;55.592;37.460;2023-04-06T11:56:57;99783.75;;;13.24;39.91
58295;BME280;45705;55.592;37.460;2023-04-06T11:59:23;99776.53;;;13.28;40.14
58295;BME280;45705;55.592;37.460;2023-04-06T12:01:49;99777.06;;;13.30;39.32
58295;BME280;45705;55.592;37.460;2023-04-06T12:04:15;99785.97;;;12.99;40.16
58295;BME280;45705;55.592;37.460;2023-04-06T12:06:40;99778.09;;;13.20;40.19
58295;BME280;45705;55.592;37.460;2023-04-06T12:10:25;99769.09;;;12.97;40.54
58295;BME280;45705;55.592;37.460;2023-04-06T12:12:51;99768.22;;;13.11;40.61
58295;BME280;45705;55.592;37.460;2023-04-06T12:15:17;99772.09;;;13.32;40.04
58295;BME280;45705;55.592;37.460;2023-04-06T12:17:42;99764.72;;;13.64;39.57
58295;BME280;45705;55.592;37.460;2023-04-06T12:20:09;99772.03;;;13.77;38.83
58295;BME280;45705;55.592;37.460;2023-04-06T12:22:35;99769.09;;;13.43;38.25
58295;BME280;45705;55.592;37.460;2023-04-06T12:25:01;99767.84;;;13.49;38.58
58295;BME280;45705;55.592;37.460;2023-04-06T12:27:28;99771.53;;;13.75;38.70
58295;BME280;45705;55.592;37.460;2023-04-06T12:29:54;99763.75;;;13.37;38.39
58295;BME280;45705;55.592;37.460;2023-04-06T12:32:20;99764.63;;;13.47;38.49
58295;BME280;45705;55.592;37.460;2023-04-06T12:34:46;99770.34;;;13.36;39.17
58295;BME280;45705;55.592;37.460;2023-04-06T12:37:12;99750.84;;;13.07;39.25
58295;BME280;45705;55.592;37.460;2023-04-06T12:39:38;99777.06;;;13.30;39.29
58295;BME280;45705;55.592;37.460;2023-04-06T12:42:04;99769.22;;;13.15;39.11
58295;BME280;45705;55.592;37.460;2023-04-06T12:44:30;99782.59;;;13.03;39.55
58295;BME280;45705;55.592;37.460;2023-04-06T12:46:55;99765.03;;;12.95;38.94
58295;BME280;45705;55.592;37.460;2023-04-06T12:49:21;99760.88;;;13.20;38.37
58295;BME280;45705;55.592;37.460;2023-04-06T12:51:47;99765.50;;;13.33;38.64
58295;BME280;45705;55.592;37.460;2023-04-06T12:54:13;99757.66;;;13.63;38.48
58295;BME280;45705;55.592;37.460;2023-04-06T12:56:38;99762.06;;;13.28;38.42
58295;BME280;45705;55.592;37.460;2023-04-06T12:59:04;99774.19;;;13.13;38.93
58295;BME280;45705;55.592;37.460;2023-04-06T13:01:30;99771.56;;;13.08;39.58